Time;durP1;ratioP1;P1;durP2;ratioP2;P2;SDS_P1;SDS_P2;PMS_P1;PMS_P2;Temp;Humidity;BMP_temperature;BMP_pressure;BME280_temperature;BME280_humidity;BME280_pressure;Samples;Min_cycle;Max_cycle;Signal;HPM_P1;HPM_P2
2021/11/13 00:00:19;;;;;;;;;;;10.90;99.90;;;;;;5097646;28;19932;-75
2021/11/13 00:02:46;;;;;;;;;;;10.90;99.90;;;;;;5097671;28;20340;-75
2021/11/13 00:05:15;;;;;;;;;;;10.90;99.90;;;;;;5097696;28;19924;-74
2021/11/13 00:07:44;;;;;;;;;;;10.90;99.90;;;;;;5096864;28;20370;-74
2021/11/13 00:10:14;;;;;;;;;;;11.00;99.90;;;;;;5097347;28;19924;-75
2021/11/13 00:12:45;;;;;;;;;;;11.00;99.90;;;;;;5097474;28;19974;-76
2021/11/13 00:15:18;;;;;;;;;;;11.00;99.90;;;;;;5097910;28;19974;-75
2021/11/13 00:17:47;;;;;;;;;;;11.00;99.90;;;;;;5097421;28;19924;-75
2021/11/13 00:20:15;;;;;;;;;;;11.00;99.90;;;;;;5092482;28;19925;-75
2021/11/13 00:22:57;;;;;;;;;;;11.00;99.90;;;;;;5097339;28;19934;-75
2021/11/13 00:25:25;;;;;;;;;;;10.90;99.90;;;;;;5097557;28;19928;-76
2021/11/13 00:27:53;;;;;;;;;;;11.00;99.90;;;;;;5097423;28;20632;-74
2021/11/13 00:30:22;;;;;;;;;;;10.90;99.90;;;;;;5097349;28;19924;-75
2021/11/13 00:32:49;;;;;;;;;;;10.90;99.90;;;;;;5096734;28;19978;-75
2021/11/13 00:35:16;;;;;;;;;;;10.90;99.90;;;;;;5096903;28;19931;-74
2021/11/13 00:37:48;;;;;;;;;;;10.90;99.90;;;;;;5097023;28;19934;-74
2021/11/13 00:40:16;;;;;;;;;;;10.90;99.90;;;;;;5096686;28;19932;-75
2021/11/13 00:42:44;;;;;;;;;;;11.00;99.90;;;;;;5096951;28;20340;-75
2021/11/13 00:45:11;;;;;;;;;;;11.00;99.90;;;;;;5096969;28;19950;-75
2021/11/13 00:47:39;;;;;;;;;;;11.00;99.90;;;;;;5096641;28;19924;-75
2021/11/13 00:50:18;;;;;;;;;;;11.00;99.90;;;;;;5096734;28;19935;-75
2021/11/13 00:52:49;;;;;;;;;;;11.00;99.90;;;;;;5096736;28;20359;-75
2021/11/13 00:55:17;;;;;;;;;;;10.90;99.90;;;;;;5096859;28;19989;-75
2021/11/13 00:57:47;;;;;;;;;;;11.00;99.90;;;;;;5096764;28;19994;-76
2021/11/13 01:00:16;;;;;;;;;;;11.00;99.90;;;;;;5096576;28;19935;-75
2021/11/13 01:02:47;;;;;;;;;;;10.90;99.90;;;;;;5095703;28;19924;-75
2021/11/13 01:05:15;;;;;;;;;;;10.90;99.90;;;;;;5096354;28;19924;-75
2021/11/13 01:07:42;;;;;;;;;;;10.90;99.90;;;;;;5096624;28;19931;-74
2021/11/13 01:10:10;;;;;;;;;;;10.90;99.90;;;;;;5096501;28;19935;-75
2021/11/13 01:12:37;;;;;;;;;;;10.90;99.90;;;;;;5096358;28;19924;-75
2021/11/13 01:15:05;;;;;;;;;;;10.90;99.90;;;;;;5095323;28;19927;-75
2021/11/13 01:20:16;;;;;;;;;;;10.90;99.90;;;;;;5096417;28;19931;-75
2021/11/13 01:22:43;;;;;;;;;;;10.90;99.90;;;;;;5093993;28;19924;-74
2021/11/13 01:25:11;;;;;;;;;;;11.00;99.90;;;;;;5094409;28;19931;-74
2021/11/13 01:27:38;;;;;;;;;;;10.90;99.90;;;;;;5096095;28;19932;-74
2021/11/13 01:30:05;;;;;;;;;;;11.00;99.90;;;;;;5096241;28;19924;-75
2021/11/13 01:32:32;;;;;;;;;;;11.00;99.90;;;;;;5095806;28;19924;-75
2021/11/13 01:34:59;;;;;;;;;;;11.00;99.90;;;;;;5096096;28;19928;-74
2021/11/13 01:37:25;;;;;;;;;;;11.00;99.90;;;;;;5095833;28;19924;-75
2021/11/13 01:39:52;;;;;;;;;;;11.00;99.90;;;;;;5095967;28;19939;-76
2021/11/13 01:42:25;;;;;;;;;;;11.00;99.90;;;;;;5095817;28;19931;-75
2021/11/13 01:44:52;;;;;;;;;;;11.00;99.90;;;;;;5096070;28;19931;-76
2021/11/13 01:47:19;;;;;;;;;;;11.00;99.90;;;;;;5095908;28;19928;-76
2021/11/13 01:49:46;;;;;;;;;;;11.00;99.90;;;;;;5095954;28;19924;-76
2021/11/13 01:52:13;;;;;;;;;;;10.90;99.90;;;;;;5095671;28;19935;-76
2021/11/13 01:54:40;;;;;;;;;;;10.90;99.90;;;;;;5095529;28;19924;-76
2021/11/13 01:57:10;;;;;;;;;;;10.90;99.90;;;;;;5095572;28;19924;-76
2021/11/13 01:59:38;;;;;;;;;;;11.00;99.90;;;;;;5095693;28;20256;-75
2021/11/13 02:02:05;;;;;;;;;;;10.90;99.90;;;;;;5095378;28;19943;-81
2021/11/13 02:04:32;;;;;;;;;;;11.00;99.90;;;;;;5096113;28;20259;-75
2021/11/13 02:06:59;;;;;;;;;;;10.90;99.90;;;;;;5095719;28;19928;-77
2021/11/13 02:09:26;;;;;;;;;;;10.90;99.90;;;;;;5095724;28;19924;-78
2021/11/13 02:11:53;;;;;;;;;;;11.00;99.90;;;;;;5095372;28;20284;-77
2021/11/13 02:14:20;;;;;;;;;;;10.90;99.90;;;;;;5095166;28;19924;-77
2021/11/13 02:16:48;;;;;;;;;;;10.90;99.90;;;;;;5095272;28;19924;-76
2021/11/13 02:19:16;;;;;;;;;;;11.00;99.90;;;;;;5095336;28;20378;-76
2021/11/13 02:21:44;;;;;;;;;;;11.00;99.90;;;;;;5095386;28;19970;-75
2021/11/13 02:24:11;;;;;;;;;;;11.00;99.90;;;;;;5095091;28;19934;-75
2021/11/13 02:26:38;;;;;;;;;;;11.00;99.90;;;;;;5095201;28;19924;-75
2021/11/13 02:29:05;;;;;;;;;;;11.00;99.90;;;;;;5093227;28;19924;-76
2021/11/13 02:31:33;;;;;;;;;;;10.90;99.90;;;;;;5095065;28;19924;-75
2021/11/13 02:34:00;;;;;;;;;;;10.90;99.90;;;;;;5095218;28;19924;-75
2021/11/13 02:36:27;;;;;;;;;;;10.90;99.90;;;;;;5095382;28;19942;-75
2021/11/13 02:38:56;;;;;;;;;;;10.90;99.90;;;;;;5095414;28;20253;-76
2021/11/13 02:41:23;;;;;;;;;;;10.90;99.90;;;;;;5095267;28;20237;-76
2021/11/13 02:43:50;;;;;;;;;;;10.90;99.90;;;;;;5095232;28;20321;-77
2021/11/13 02:46:17;;;;;;;;;;;10.90;99.90;;;;;;5094996;28;20336;-77
2021/11/13 02:48:43;;;;;;;;;;;10.90;99.90;;;;;;5095075;28;20340;-76
2021/11/13 02:51:11;;;;;;;;;;;10.90;99.90;;;;;;5095009;28;19925;-76
2021/11/13 02:53:37;;;;;;;;;;;10.90;99.90;;;;;;5095148;28;19925;-78
2021/11/13 02:56:07;;;;;;;;;;;10.90;99.90;;;;;;5095173;28;19924;-77
2021/11/13 02:58:34;;;;;;;;;;;10.90;99.90;;;;;;5094934;28;19924;-77
2021/11/13 03:01:01;;;;;;;;;;;10.90;99.90;;;;;;5095026;28;19924;-76
2021/11/13 03:03:28;;;;;;;;;;;10.90;99.90;;;;;;5095026;28;19930;-77
2021/11/13 03:05:55;;;;;;;;;;;10.90;99.90;;;;;;5095246;28;19935;-76
2021/11/13 03:08:23;;;;;;;;;;;10.90;99.90;;;;;;5094868;28;19943;-76
2021/11/13 03:10:50;;;;;;;;;;;10.90;99.90;;;;;;5095155;28;19928;-76
2021/11/13 03:13:18;;;;;;;;;;;10.90;99.90;;;;;;5094684;28;19924;-76
2021/11/13 03:15:45;;;;;;;;;;;10.80;99.90;;;;;;5094871;28;19924;-76
2021/11/13 03:18:11;;;;;;;;;;;10.80;99.90;;;;;;5094776;28;19924;-76
2021/11/13 03:20:38;;;;;;;;;;;10.80;99.90;;;;;;5094716;28;20237;-76
2021/11/13 03:23:05;;;;;;;;;;;10.80;99.90;;;;;;5094796;28;19994;-76
2021/11/13 03:25:33;;;;;;;;;;;10.80;99.90;;;;;;5094664;28;19924;-76
2021/11/13 03:28:00;;;;;;;;;;;10.80;99.90;;;;;;5094816;28;19989;-76
2021/11/13 03:30:29;;;;;;;;;;;10.80;99.90;;;;;;5094727;28;19932;-77
2021/11/13 03:32:55;;;;;;;;;;;10.80;99.90;;;;;;5094629;28;19924;-76
2021/11/13 03:35:27;;;;;;;;;;;10.80;99.90;;;;;;5094649;28;20395;-76
2021/11/13 03:37:54;;;;;;;;;;;10.80;99.90;;;;;;5094675;28;19967;-77
2021/11/13 03:40:21;;;;;;;;;;;10.80;99.90;;;;;;5098083;28;19928;-77
2021/11/13 03:42:48;;;;;;;;;;;10.80;99.90;;;;;;5098140;28;19934;-77
2021/11/13 03:45:14;;;;;;;;;;;10.80;99.90;;;;;;5098272;28;19934;-76
2021/11/13 03:47:43;;;;;;;;;;;10.70;99.90;;;;;;5098155;28;19924;-76
2021/11/13 03:50:10;;;;;;;;;;;10.80;99.90;;;;;;5098095;28;19934;-76
2021/11/13 03:52:36;;;;;;;;;;;10.80;99.90;;;;;;5098205;28;19950;-76
2021/11/13 03:55:04;;;;;;;;;;;10.80;99.90;;;;;;5097919;28;20374;-77
2021/11/13 03:57:30;;;;;;;;;;;10.80;99.90;;;;;;5097983;28;19942;-77
2021/11/13 03:59:57;;;;;;;;;;;10.80;99.90;;;;;;5097946;28;20001;-77
2021/11/13 04:02:24;;;;;;;;;;;10.80;99.90;;;;;;5097275;28;19924;-76
2021/11/13 04:04:52;;;;;;;;;;;10.80;99.90;;;;;;5097910;28;19928;-75
2021/11/13 04:07:19;;;;;;;;;;;10.80;99.90;;;;;;5097673;28;19924;-76
2021/11/13 04:09:46;;;;;;;;;;;10.80;99.90;;;;;;5097729;28;19924;-76
2021/11/13 04:12:14;;;;;;;;;;;10.80;99.90;;;;;;5097736;28;19950;-75
2021/11/13 04:14:41;;;;;;;;;;;10.80;99.90;;;;;;5097493;28;19928;-75
2021/11/13 04:17:08;;;;;;;;;;;10.80;99.90;;;;;;5097561;28;19932;-75
2021/11/13 04:19:35;;;;;;;;;;;10.80;99.90;;;;;;5097421;28;19924;-75
2021/11/13 04:22:03;;;;;;;;;;;10.90;99.90;;;;;;5097510;28;19924;-75
2021/11/13 04:24:30;;;;;;;;;;;10.80;99.90;;;;;;5097318;28;19924;-75
2021/11/13 04:26:57;;;;;;;;;;;10.90;99.90;;;;;;5097682;28;19924;-74
2021/11/13 04:29:24;;;;;;;;;;;10.80;99.90;;;;;;5097349;28;19931;-75
2021/11/13 04:31:51;;;;;;;;;;;10.80;99.90;;;;;;5097231;28;19928;-75
2021/11/13 04:34:21;;;;;;;;;;;10.80;99.90;;;;;;5097341;28;20255;-74
2021/11/13 04:36:51;;;;;;;;;;;10.80;99.90;;;;;;5097249;28;20363;-74
2021/11/13 04:39:19;;;;;;;;;;;10.80;99.90;;;;;;5097168;28;19924;-75
2021/11/13 04:41:46;;;;;;;;;;;10.80;99.90;;;;;;5096978;28;19924;-74
2021/11/13 04:44:13;;;;;;;;;;;10.80;99.90;;;;;;5096925;28;19924;-75
2021/11/13 04:46:40;;;;;;;;;;;10.80;99.90;;;;;;5097185;28;19924;-74
2021/11/13 04:49:07;;;;;;;;;;;10.80;99.90;;;;;;5097028;28;20363;-74
2021/11/13 04:51:33;;;;;;;;;;;10.80;99.90;;;;;;5096002;28;19924;-75
2021/11/13 04:54:00;;;;;;;;;;;10.80;99.90;;;;;;5096909;28;19924;-75
2021/11/13 04:56:29;;;;;;;;;;;10.90;99.90;;;;;;5096839;28;19924;-75
2021/11/13 04:58:55;;;;;;;;;;;10.90;99.90;;;;;;5097001;28;19924;-74
2021/11/13 05:01:22;;;;;;;;;;;10.90;99.90;;;;;;5096702;28;20249;-75
2021/11/13 05:03:49;;;;;;;;;;;10.90;99.90;;;;;;5096598;28;19924;-74
2021/11/13 05:06:16;;;;;;;;;;;10.90;99.90;;;;;;5096738;28;19930;-75
2021/11/13 05:08:43;;;;;;;;;;;10.90;99.90;;;;;;5096544;28;20276;-75
2021/11/13 05:11:10;;;;;;;;;;;10.90;99.90;;;;;;5096458;28;19931;-74
2021/11/13 05:13:38;;;;;;;;;;;10.90;99.90;;;;;;5096462;28;19924;-74
2021/11/13 05:16:05;;;;;;;;;;;10.90;99.90;;;;;;5096609;28;19934;-74
2021/11/13 05:18:32;;;;;;;;;;;11.00;99.90;;;;;;5096628;28;19939;-74
2021/11/13 05:20:58;;;;;;;;;;;11.00;99.90;;;;;;5096465;28;19924;-75
2021/11/13 05:23:25;;;;;;;;;;;11.00;99.90;;;;;;5096281;28;20260;-75
2021/11/13 05:25:53;;;;;;;;;;;10.90;99.90;;;;;;5096235;28;19931;-75
2021/11/13 05:28:20;;;;;;;;;;;10.90;99.90;;;;;;5096220;28;19971;-74
2021/11/13 05:30:48;;;;;;;;;;;10.90;99.90;;;;;;5096109;28;19924;-74
2021/11/13 05:33:15;;;;;;;;;;;11.00;99.90;;;;;;5096169;28;19931;-74
2021/11/13 05:35:42;;;;;;;;;;;10.90;99.90;;;;;;5095828;28;19939;-74
2021/11/13 05:38:09;;;;;;;;;;;10.90;99.90;;;;;;5096135;28;19924;-74
2021/11/13 05:40:36;;;;;;;;;;;10.90;99.90;;;;;;5095926;28;19924;-74
2021/11/13 05:43:02;;;;;;;;;;;10.90;99.90;;;;;;5095834;28;20263;-74
2021/11/13 05:45:29;;;;;;;;;;;10.90;99.90;;;;;;5095829;28;20348;-75
2021/11/13 05:47:58;;;;;;;;;;;10.90;99.90;;;;;;5095866;28;19924;-74
2021/11/13 05:50:24;;;;;;;;;;;10.90;99.90;;;;;;5095826;28;19924;-74
2021/11/13 05:52:51;;;;;;;;;;;10.90;99.90;;;;;;5095701;28;19924;-74
2021/11/13 05:55:19;;;;;;;;;;;11.00;99.90;;;;;;5095639;28;19924;-74
2021/11/13 05:57:45;;;;;;;;;;;11.00;99.90;;;;;;5095662;28;20340;-74
2021/11/13 06:00:13;;;;;;;;;;;10.90;99.90;;;;;;5095591;28;19928;-75
2021/11/13 06:02:40;;;;;;;;;;;10.90;99.90;;;;;;5095241;28;20348;-74
2021/11/13 06:05:09;;;;;;;;;;;10.90;99.90;;;;;;5095716;28;19930;-74
2021/11/13 06:07:36;;;;;;;;;;;10.90;99.90;;;;;;5095595;28;19931;-74
2021/11/13 06:10:02;;;;;;;;;;;10.90;99.90;;;;;;5095671;28;19925;-75
2021/11/13 06:12:29;;;;;;;;;;;10.90;99.90;;;;;;5095521;28;20315;-76
2021/11/13 06:14:56;;;;;;;;;;;10.90;99.90;;;;;;5095286;28;19924;-75
2021/11/13 06:17:23;;;;;;;;;;;10.80;99.90;;;;;;5095313;28;19924;-77
2021/11/13 06:19:50;;;;;;;;;;;10.80;99.90;;;;;;5095309;28;20352;-76
2021/11/13 06:22:18;;;;;;;;;;;10.80;99.90;;;;;;5095278;28;19924;-75
2021/11/13 06:24:45;;;;;;;;;;;10.90;99.90;;;;;;5095476;28;19935;-75
2021/11/13 06:27:14;;;;;;;;;;;10.90;99.90;;;;;;5095158;28;20264;-76
2021/11/13 06:29:41;;;;;;;;;;;10.90;99.90;;;;;;5095492;28;19931;-76
2021/11/13 06:32:08;;;;;;;;;;;10.80;99.90;;;;;;5095062;28;19924;-74
2021/11/13 06:34:35;;;;;;;;;;;10.70;99.90;;;;;;5095268;28;19924;-74
2021/11/13 06:37:02;;;;;;;;;;;10.70;99.90;;;;;;5095242;28;20370;-74
2021/11/13 06:39:30;;;;;;;;;;;10.70;99.90;;;;;;5095366;28;19963;-75
2021/11/13 06:41:57;;;;;;;;;;;10.60;99.90;;;;;;5095061;28;19934;-75
2021/11/13 06:44:23;;;;;;;;;;;10.60;99.90;;;;;;5095057;28;19935;-74
2021/11/13 06:46:50;;;;;;;;;;;10.50;99.90;;;;;;5095100;28;19935;-75
2021/11/13 06:49:17;;;;;;;;;;;10.50;99.90;;;;;;5095070;28;19924;-74
2021/11/13 06:51:45;;;;;;;;;;;10.50;99.90;;;;;;5094989;28;19924;-75
2021/11/13 06:54:12;;;;;;;;;;;10.50;99.90;;;;;;5094927;28;19924;-74
2021/11/13 06:56:40;;;;;;;;;;;10.50;99.90;;;;;;5095172;28;19923;-74
2021/11/13 06:59:07;;;;;;;;;;;10.40;99.90;;;;;;5095175;28;19924;-74
2021/11/13 07:01:34;;;;;;;;;;;10.40;99.90;;;;;;5094973;28;19928;-74
2021/11/13 07:04:00;;;;;;;;;;;10.30;99.90;;;;;;5094926;28;19924;-73
2021/11/13 07:06:27;;;;;;;;;;;10.30;99.90;;;;;;5095091;28;19935;-73
2021/11/13 07:08:54;;;;;;;;;;;10.30;99.90;;;;;;5094832;28;19935;-73
2021/11/13 07:11:21;;;;;;;;;;;10.20;99.90;;;;;;5094988;28;19934;-74
2021/11/13 07:13:49;;;;;;;;;;;10.20;99.90;;;;;;5096013;28;20260;-74
2021/11/13 07:16:16;;;;;;;;;;;10.20;99.90;;;;;;5098768;28;19924;-74
2021/11/13 07:18:43;;;;;;;;;;;10.20;99.90;;;;;;5098580;28;19928;-74
2021/11/13 07:21:10;;;;;;;;;;;10.30;99.90;;;;;;5098918;28;19924;-74
2021/11/13 07:23:36;;;;;;;;;;;10.30;99.90;;;;;;5098544;28;20282;-74
2021/11/13 07:26:04;;;;;;;;;;;10.20;99.90;;;;;;5098502;28;19928;-73
2021/11/13 07:28:37;;;;;;;;;;;10.20;99.90;;;;;;5098587;28;19967;-76
2021/11/13 07:31:05;;;;;;;;;;;10.20;99.90;;;;;;5098444;28;19950;-75
2021/11/13 07:33:32;;;;;;;;;;;10.20;99.90;;;;;;5098504;28;19924;-76
2021/11/13 07:35:59;;;;;;;;;;;10.20;99.90;;;;;;5098504;28;19924;-76
2021/11/13 07:38:25;;;;;;;;;;;10.20;99.90;;;;;;5098448;28;19924;-75
2021/11/13 07:40:52;;;;;;;;;;;10.20;99.90;;;;;;5098457;28;20037;-76
2021/11/13 07:43:19;;;;;;;;;;;10.20;99.90;;;;;;5098353;28;20336;-74
2021/11/13 07:45:46;;;;;;;;;;;10.20;99.90;;;;;;5098150;28;19924;-74
2021/11/13 07:48:14;;;;;;;;;;;10.20;99.90;;;;;;5098082;28;19925;-74
2021/11/13 07:50:42;;;;;;;;;;;10.20;99.90;;;;;;5098289;28;19934;-74
2021/11/13 07:53:08;;;;;;;;;;;10.20;99.90;;;;;;5098096;28;19924;-74
2021/11/13 07:55:35;;;;;;;;;;;10.10;99.90;;;;;;5097864;28;19934;-75
2021/11/13 07:58:02;;;;;;;;;;;10.10;99.90;;;;;;5097967;28;19960;-74
2021/11/13 08:00:29;;;;;;;;;;;10.10;99.90;;;;;;5097902;28;19924;-74
2021/11/13 08:02:56;;;;;;;;;;;10.00;99.90;;;;;;5098062;28;19924;-74
2021/11/13 08:05:24;;;;;;;;;;;10.00;99.90;;;;;;5097923;28;19931;-74
2021/11/13 08:07:51;;;;;;;;;;;10.00;99.90;;;;;;5097807;28;19924;-74
2021/11/13 08:10:18;;;;;;;;;;;10.00;99.90;;;;;;5097690;28;19924;-74
2021/11/13 08:12:46;;;;;;;;;;;10.00;99.90;;;;;;5097692;28;19942;-74
2021/11/13 08:15:13;;;;;;;;;;;10.00;99.90;;;;;;5093918;28;19932;-74
2021/11/13 08:17:41;;;;;;;;;;;10.00;99.90;;;;;;5097668;28;20004;-74
2021/11/13 08:20:08;;;;;;;;;;;10.00;99.90;;;;;;5097490;28;20349;-74
2021/11/13 08:22:36;;;;;;;;;;;10.00;99.90;;;;;;5097236;28;20352;-74
2021/11/13 08:25:03;;;;;;;;;;;10.00;99.90;;;;;;5096842;28;19935;-74
2021/11/13 08:27:30;;;;;;;;;;;10.00;99.90;;;;;;5097309;28;20360;-74
2021/11/13 08:29:57;;;;;;;;;;;10.00;99.90;;;;;;5097068;28;19928;-74
2021/11/13 08:32:24;;;;;;;;;;;10.00;99.90;;;;;;5097097;28;19930;-74
2021/11/13 08:34:51;;;;;;;;;;;9.90;99.90;;;;;;5097003;28;20257;-74
2021/11/13 08:37:18;;;;;;;;;;;10.00;99.90;;;;;;5097138;28;19930;-74
2021/11/13 08:39:46;;;;;;;;;;;10.10;99.90;;;;;;5097100;28;20325;-75
2021/11/13 08:42:14;;;;;;;;;;;10.00;99.90;;;;;;5096954;28;19924;-74
2021/11/13 08:44:41;;;;;;;;;;;10.00;99.90;;;;;;5096335;28;19928;-74
2021/11/13 08:47:09;;;;;;;;;;;10.10;99.90;;;;;;5097020;28;19924;-75
2021/11/13 08:49:36;;;;;;;;;;;10.10;99.90;;;;;;5096782;28;19981;-74
2021/11/13 08:52:03;;;;;;;;;;;10.20;99.90;;;;;;5096836;28;19924;-74
2021/11/13 08:54:30;;;;;;;;;;;10.20;99.90;;;;;;5096877;28;20027;-75
2021/11/13 08:56:58;;;;;;;;;;;10.30;99.90;;;;;;5096602;28;19925;-74
2021/11/13 08:59:25;;;;;;;;;;;10.40;99.90;;;;;;5096865;28;19951;-75
2021/11/13 09:01:52;;;;;;;;;;;10.50;99.90;;;;;;5096652;28;20390;-75
2021/11/13 09:04:19;;;;;;;;;;;10.50;99.90;;;;;;5096550;28;19924;-75
2021/11/13 09:06:45;;;;;;;;;;;10.50;99.90;;;;;;5096557;28;19928;-75
2021/11/13 09:09:12;;;;;;;;;;;10.50;99.90;;;;;;5096594;28;19934;-75
2021/11/13 09:11:40;;;;;;;;;;;10.60;99.90;;;;;;5096456;28;19935;-75
2021/11/13 09:14:09;;;;;;;;;;;10.70;99.90;;;;;;5096688;28;19931;-74
2021/11/13 09:16:36;;;;;;;;;;;10.70;99.90;;;;;;5096354;28;19928;-74
2021/11/13 09:19:03;;;;;;;;;;;10.70;99.90;;;;;;5096275;28;19924;-74
2021/11/13 09:21:32;;;;;;;;;;;10.70;99.90;;;;;;5096426;28;20324;-75
2021/11/13 09:23:59;;;;;;;;;;;10.70;99.90;;;;;;5096280;28;20014;-75
2021/11/13 09:26:27;;;;;;;;;;;10.70;99.90;;;;;;5096310;28;19924;-75
2021/11/13 09:28:55;;;;;;;;;;;10.70;99.90;;;;;;5095807;28;19924;-74
2021/11/13 09:31:23;;;;;;;;;;;10.60;99.90;;;;;;5096113;28;19943;-74
2021/11/13 09:33:50;;;;;;;;;;;10.60;99.90;;;;;;5096129;28;19934;-74
2021/11/13 09:36:17;;;;;;;;;;;10.60;99.90;;;;;;5095307;28;19924;-75
2021/11/13 09:38:45;;;;;;;;;;;10.60;99.90;;;;;;5096055;28;20245;-75
2021/11/13 09:41:12;;;;;;;;;;;10.70;99.90;;;;;;5096170;28;19935;-75
2021/11/13 09:43:39;;;;;;;;;;;10.70;99.90;;;;;;5095868;28;20254;-75
2021/11/13 09:46:07;;;;;;;;;;;10.70;99.90;;;;;;5095707;28;19932;-74
2021/11/13 09:48:35;;;;;;;;;;;10.80;99.90;;;;;;5096028;28;20355;-75
2021/11/13 09:51:02;;;;;;;;;;;10.80;99.90;;;;;;5095736;28;20260;-75
2021/11/13 09:53:29;;;;;;;;;;;10.80;99.90;;;;;;5095370;28;20378;-75
2021/11/13 09:55:56;;;;;;;;;;;10.90;99.90;;;;;;5095708;28;19924;-74
2021/11/13 09:58:23;;;;;;;;;;;10.90;99.90;;;;;;5095607;28;20245;-75
2021/11/13 10:00:50;;;;;;;;;;;10.90;99.90;;;;;;5095233;28;20253;-75
2021/11/13 10:03:19;;;;;;;;;;;10.90;99.90;;;;;;5094647;28;20314;-75
2021/11/13 10:05:47;;;;;;;;;;;10.90;99.90;;;;;;5095354;28;19927;-75
2021/11/13 10:08:14;;;;;;;;;;;10.80;99.90;;;;;;5095521;28;19935;-75
2021/11/13 10:10:41;;;;;;;;;;;10.80;99.90;;;;;;5095585;28;19924;-75
2021/11/13 10:13:22;;;;;;;;;;;10.90;99.90;;;;;;5095406;28;19924;-75
2021/11/13 10:15:51;;;;;;;;;;;11.00;99.90;;;;;;5095401;28;19924;-76
2021/11/13 10:18:18;;;;;;;;;;;11.00;99.90;;;;;;5095524;28;19924;-75
2021/11/13 10:20:47;;;;;;;;;;;11.10;99.90;;;;;;5095646;28;19928;-75
2021/11/13 10:23:17;;;;;;;;;;;11.20;99.90;;;;;;5095566;28;19924;-75
2021/11/13 10:25:54;;;;;;;;;;;11.20;99.90;;;;;;5095295;28;19934;-76
2021/11/13 10:28:22;;;;;;;;;;;11.20;99.90;;;;;;5094349;28;19924;-75
2021/11/13 10:30:49;;;;;;;;;;;11.20;99.90;;;;;;5095130;28;19935;-75
2021/11/13 10:33:16;;;;;;;;;;;11.20;99.90;;;;;;5095141;28;19938;-79
2021/11/13 10:35:44;;;;;;;;;;;11.20;99.90;;;;;;5095338;28;20264;-75
2021/11/13 10:38:13;;;;;;;;;;;11.20;99.90;;;;;;5095046;28;19931;-76
2021/11/13 10:40:48;;;;;;;;;;;11.20;99.90;;;;;;5095250;28;19930;-75
2021/11/13 10:43:14;;;;;;;;;;;11.20;99.90;;;;;;5095111;28;19924;-75
2021/11/13 10:45:41;;;;;;;;;;;11.10;99.90;;;;;;5094719;28;19924;-76
2021/11/13 10:48:19;;;;;;;;;;;11.00;99.90;;;;;;5097081;28;20041;-75
2021/11/13 10:50:46;;;;;;;;;;;11.00;99.90;;;;;;5099299;28;19934;-75
2021/11/13 10:53:14;;;;;;;;;;;11.00;99.90;;;;;;5099342;28;19924;-76
2021/11/13 10:55:41;;;;;;;;;;;11.00;99.90;;;;;;5099184;28;20015;-76
2021/11/13 10:58:27;;;;;;;;;;;11.00;99.90;;;;;;5099062;28;19934;-76
2021/11/13 11:00:53;;;;;;;;;;;11.00;99.90;;;;;;5099029;28;19977;-76
2021/11/13 11:03:20;;;;;;;;;;;11.00;99.90;;;;;;5098880;28;19934;-76
2021/11/13 11:05:47;;;;;;;;;;;11.00;99.90;;;;;;5098979;28;19934;-78
2021/11/13 11:08:35;;;;;;;;;;;11.00;99.90;;;;;;5098833;28;19935;-77
2021/11/13 11:11:04;;;;;;;;;;;11.00;99.90;;;;;;5095407;28;20260;-76
2021/11/13 11:13:44;;;;;;;;;;;11.00;99.90;;;;;;5099094;28;19924;-76
2021/11/13 11:16:23;;;;;;;;;;;11.00;99.90;;;;;;5098805;28;20329;-76
2021/11/13 11:18:57;;;;;;;;;;;11.00;99.90;;;;;;5098627;28;19934;-76
2021/11/13 11:21:39;;;;;;;;;;;11.10;99.90;;;;;;5098644;28;20271;-76
2021/11/13 11:24:13;;;;;;;;;;;11.10;99.90;;;;;;5098823;28;19928;-76
2021/11/13 11:26:41;;;;;;;;;;;11.10;99.90;;;;;;5098665;28;19924;-76
2021/11/13 11:29:08;;;;;;;;;;;11.10;99.90;;;;;;5098490;28;19924;-76
2021/11/13 11:31:38;;;;;;;;;;;11.10;99.90;;;;;;5098220;28;19928;-76
2021/11/13 11:34:05;;;;;;;;;;;11.10;99.90;;;;;;5098753;28;19924;-76
2021/11/13 11:36:32;;;;;;;;;;;11.10;99.90;;;;;;5098530;28;20271;-75
2021/11/13 11:38:59;;;;;;;;;;;11.20;99.90;;;;;;5098366;28;19924;-75
2021/11/13 11:41:25;;;;;;;;;;;11.20;99.90;;;;;;5098344;28;19924;-76
2021/11/13 11:43:54;;;;;;;;;;;11.20;99.90;;;;;;5098333;28;19939;-76
2021/11/13 11:46:21;;;;;;;;;;;11.10;99.90;;;;;;5097182;28;19934;-76
2021/11/13 11:48:51;;;;;;;;;;;11.10;99.90;;;;;;5098367;28;20272;-76
2021/11/13 11:51:18;;;;;;;;;;;11.20;99.90;;;;;;5098186;28;20049;-76
2021/11/13 11:53:44;;;;;;;;;;;11.20;99.90;;;;;;5098189;28;20252;-76
2021/11/13 11:56:11;;;;;;;;;;;11.20;99.90;;;;;;5097844;28;19923;-75
2021/11/13 11:58:38;;;;;;;;;;;11.20;99.90;;;;;;5097796;28;19924;-76
2021/11/13 12:01:09;;;;;;;;;;;11.10;99.90;;;;;;5097365;28;20009;-76
2021/11/13 12:03:37;;;;;;;;;;;11.10;99.90;;;;;;5098128;28;19997;-75
2021/11/13 12:06:05;;;;;;;;;;;11.20;99.90;;;;;;5097829;28;19924;-75
2021/11/13 12:08:33;;;;;;;;;;;11.20;99.90;;;;;;5097752;28;19924;-77
2021/11/13 12:11:15;;;;;;;;;;;11.20;99.90;;;;;;5097950;28;19924;-77
2021/11/13 12:13:42;;;;;;;;;;;11.30;99.90;;;;;;5097847;28;19956;-75
2021/11/13 12:16:12;;;;;;;;;;;11.20;99.90;;;;;;5097696;28;19924;-77
2021/11/13 12:18:44;;;;;;;;;;;11.20;99.90;;;;;;5097609;28;20415;-76
2021/11/13 12:21:11;;;;;;;;;;;11.20;99.90;;;;;;5097684;28;19924;-78
2021/11/13 12:23:39;;;;;;;;;;;11.20;99.90;;;;;;5097488;28;20348;-76
2021/11/13 12:26:08;;;;;;;;;;;11.20;99.90;;;;;;5097410;28;19935;-77
2021/11/13 12:28:35;;;;;;;;;;;11.30;99.90;;;;;;5097655;28;19924;-76
2021/11/13 12:31:16;;;;;;;;;;;11.30;99.90;;;;;;5097351;28;19924;-75
2021/11/13 12:33:45;;;;;;;;;;;11.30;99.90;;;;;;5097457;28;19942;-76
2021/11/13 12:36:13;;;;;;;;;;;11.40;99.90;;;;;;5097228;28;19924;-75
2021/11/13 12:38:40;;;;;;;;;;;11.40;99.90;;;;;;5097224;28;19934;-76
2021/11/13 12:41:07;;;;;;;;;;;11.50;99.90;;;;;;5097111;28;19935;-78
2021/11/13 12:43:54;;;;;;;;;;;11.50;99.90;;;;;;5097059;28;19923;-76
2021/11/13 12:46:25;;;;;;;;;;;11.60;99.90;;;;;;5097388;28;19931;-76
2021/11/13 12:48:52;;;;;;;;;;;11.60;99.90;;;;;;5097078;28;19943;-76
2021/11/13 12:51:19;;;;;;;;;;;11.60;99.90;;;;;;5096815;28;19924;-76
2021/11/13 12:53:52;;;;;;;;;;;11.60;99.90;;;;;;5097217;28;19924;-78
2021/11/13 12:56:34;;;;;;;;;;;11.60;99.90;;;;;;5096952;28;20237;-76
2021/11/13 12:59:00;;;;;;;;;;;11.60;99.90;;;;;;5096777;28;19931;-79
2021/11/13 13:01:29;;;;;;;;;;;11.60;99.90;;;;;;5096816;28;19924;-77
2021/11/13 13:04:00;;;;;;;;;;;11.60;99.90;;;;;;5096959;28;20027;-77
2021/11/13 13:06:26;;;;;;;;;;;11.60;99.90;;;;;;5096799;28;20340;-76
2021/11/13 13:09:00;;;;;;;;;;;11.60;99.90;;;;;;5096719;28;19935;-76
2021/11/13 13:11:27;;;;;;;;;;;11.50;99.90;;;;;;5095641;28;19934;-76
2021/11/13 13:13:54;;;;;;;;;;;11.60;99.90;;;;;;5096567;28;19923;-78
2021/11/13 13:16:22;;;;;;;;;;;11.60;99.90;;;;;;5097682;28;19924;-86
2021/11/13 13:18:51;;;;;;;;;;;11.60;99.90;;;;;;5098473;28;20417;-75
2021/11/13 13:21:17;;;;;;;;;;;11.70;99.90;;;;;;5096654;28;19923;-76
2021/11/13 13:23:45;;;;;;;;;;;11.70;99.90;;;;;;5096484;28;19924;-77
2021/11/13 13:26:12;;;;;;;;;;;11.70;99.90;;;;;;5097663;28;20260;-85
2021/11/13 13:28:40;;;;;;;;;;;11.70;99.90;;;;;;5096428;28;19928;-78
2021/11/13 13:31:07;;;;;;;;;;;11.70;99.90;;;;;;5095993;28;20007;-82
2021/11/13 13:33:34;;;;;;;;;;;11.70;99.90;;;;;;5096195;28;20344;-76
2021/11/13 13:36:02;;;;;;;;;;;11.70;99.90;;;;;;5096304;28;19924;-76
2021/11/13 13:38:31;;;;;;;;;;;11.70;99.90;;;;;;5095764;28;19927;-78
2021/11/13 13:40:58;;;;;;;;;;;11.80;99.90;;;;;;5095717;28;19924;-76
2021/11/13 13:43:28;;;;;;;;;;;11.80;99.90;;;;;;5095893;28;19929;-76
2021/11/13 13:45:56;;;;;;;;;;;11.80;99.90;;;;;;5095873;28;20022;-76
2021/11/13 13:48:23;;;;;;;;;;;11.90;99.90;;;;;;5096067;28;19928;-76
2021/11/13 13:50:50;;;;;;;;;;;11.90;99.90;;;;;;5095815;28;19930;-76
2021/11/13 13:53:18;;;;;;;;;;;11.90;99.90;;;;;;5095895;28;19934;-76
2021/11/13 13:55:46;;;;;;;;;;;12.00;99.90;;;;;;5095833;28;19924;-78
2021/11/13 13:58:13;;;;;;;;;;;11.90;99.90;;;;;;5095577;28;19924;-76
2021/11/13 14:00:41;;;;;;;;;;;11.90;99.90;;;;;;5096110;28;19925;-76
2021/11/13 14:03:08;;;;;;;;;;;11.90;99.90;;;;;;5095857;28;19935;-78
2021/11/13 14:05:35;;;;;;;;;;;11.80;99.90;;;;;;5095751;28;19924;-76
2021/11/13 14:08:06;;;;;;;;;;;11.80;99.90;;;;;;5095501;28;19924;-76
2021/11/13 14:10:42;;;;;;;;;;;11.70;99.90;;;;;;5095529;28;19990;-76
2021/11/13 14:13:09;;;;;;;;;;;11.70;99.90;;;;;;5095249;28;19931;-78
2021/11/13 14:15:37;;;;;;;;;;;11.70;99.90;;;;;;5095437;28;19924;-75
2021/11/13 14:18:05;;;;;;;;;;;11.70;99.90;;;;;;5095432;28;20053;-76
2021/11/13 14:20:32;;;;;;;;;;;11.70;99.90;;;;;;5095547;28;20006;-76
2021/11/13 14:23:00;;;;;;;;;;;11.70;99.90;;;;;;5094944;28;20237;-76